sensor_id;sensor_type;location;lat;lon;timestamp;pressure;altitude;pressure_sealevel;temperature;humidity
41254;BME280;26987;59.928;30.306;2023-12-22T00:01:51;98103.78;;;-0.95;100.00
41254;BME280;26987;59.928;30.306;2023-12-22T00:04:19;98079.09;;;-1.00;100.00
41254;BME280;26987;59.928;30.306;2023-12-22T00:06:47;98106.28;;;-0.86;100.00
41254;BME280;26987;59.928;30.306;2023-12-22T00:09:15;98107.09;;;-0.86;100.00
41254;BME280;26987;59.928;30.306;2023-12-22T00:11:43;98102.63;;;-0.85;100.00
41254;BME280;26987;59.928;30.306;2023-12-22T00:14:11;98093.50;;;-0.90;100.00
41254;BME280;26987;59.928;30.306;2023-12-22T00:16:39;98102.22;;;-0.82;100.00
41254;BME280;26987;59.928;30.306;2023-12-22T00:19:08;98093.31;;;-0.81;100.00
41254;BME280;26987;59.928;30.306;2023-12-22T00:21:36;98094.34;;;-0.82;100.00
41254;BME280;26987;59.928;30.306;2023-12-22T00:24:04;98090.91;;;-0.76;100.00
41254;BME280;26987;59.928;30.306;2023-12-22T00:26:33;98092.13;;;-0.72;100.00
41254;BME280;26987;59.928;30.306;2023-12-22T00:29:01;98083.03;;;-0.76;100.00
41254;BME280;26987;59.928;30.306;2023-12-22T00:31:29;98094.38;;;-0.69;100.00
41254;BME280;26987;59.928;30.306;2023-12-22T00:33:56;98087.31;;;-0.68;100.00
41254;BME280;26987;59.928;30.306;2023-12-22T00:36:26;98082.63;;;-0.73;100.00
41254;BME280;26987;59.928;30.306;2023-12-22T00:38:53;98084.25;;;-0.72;100.00
41254;BME280;26987;59.928;30.306;2023-12-22T00:41:21;98065.19;;;-0.81;100.00
41254;BME280;26987;59.928;30.306;2023-12-22T00:43:49;98046.34;;;-0.91;100.00
41254;BME280;26987;59.928;30.306;2023-12-22T00:46:17;98074.34;;;-0.70;100.00
41254;BME280;26987;59.928;30.306;2023-12-22T00:48:46;98070.69;;;-0.69;100.00
41254;BME280;26987;59.928;30.306;2023-12-22T00:51:14;98068.25;;;-0.77;100.00
41254;BME280;26987;59.928;30.306;2023-12-22T00:53:44;98022.44;;;-1.03;100.00
41254;BME280;26987;59.928;30.306;2023-12-22T00:56:12;98054.84;;;-0.89;100.00
41254;BME280;26987;59.928;30.306;2023-12-22T00:58:40;98045.91;;;-0.95;100.00
41254;BME280;26987;59.928;30.306;2023-12-22T01:01:08;98047.72;;;-1.02;100.00
41254;BME280;26987;59.928;30.306;2023-12-22T01:03:36;98041.44;;;-1.08;100.00
41254;BME280;26987;59.928;30.306;2023-12-22T01:06:04;98027.25;;;-1.13;100.00
41254;BME280;26987;59.928;30.306;2023-12-22T01:08:32;98033.31;;;-1.20;100.00
41254;BME280;26987;59.928;30.306;2023-12-22T01:11:01;98026.00;;;-1.24;100.00
41254;BME280;26987;59.928;30.306;2023-12-22T01:13:29;98014.22;;;-1.35;100.00
41254;BME280;26987;59.928;30.306;2023-12-22T01:15:57;98009.34;;;-1.45;100.00
41254;BME280;26987;59.928;30.306;2023-12-22T01:18:25;98024.13;;;-1.37;100.00
41254;BME280;26987;59.928;30.306;2023-12-22T01:20:55;98017.84;;;-1.36;100.00
41254;BME280;26987;59.928;30.306;2023-12-22T01:23:23;97990.75;;;-1.44;100.00
41254;BME280;26987;59.928;30.306;2023-12-22T01:25:52;97989.72;;;-1.43;100.00
41254;BME280;26987;59.928;30.306;2023-12-22T01:28:21;97992.34;;;-1.43;100.00
41254;BME280;26987;59.928;30.306;2023-12-22T01:30:49;97991.38;;;-1.42;100.00
41254;BME280;26987;59.928;30.306;2023-12-22T01:33:17;97998.03;;;-1.39;100.00
41254;BME280;26987;59.928;30.306;2023-12-22T01:35:45;98000.25;;;-1.43;100.00
41254;BME280;26987;59.928;30.306;2023-12-22T01:38:13;97991.97;;;-1.40;100.00
41254;BME280;26987;59.928;30.306;2023-12-22T01:40:40;97996.81;;;-1.43;100.00
41254;BME280;26987;59.928;30.306;2023-12-22T01:43:08;97993.56;;;-1.38;100.00
41254;BME280;26987;59.928;30.306;2023-12-22T01:45:38;97992.78;;;-1.32;100.00
41254;BME280;26987;59.928;30.306;2023-12-22T01:48:10;97987.13;;;-1.36;100.00
41254;BME280;26987;59.928;30.306;2023-12-22T01:50:38;97987.13;;;-1.29;100.00
41254;BME280;26987;59.928;30.306;2023-12-22T01:53:06;97969.72;;;-1.37;100.00
41254;BME280;26987;59.928;30.306;2023-12-22T01:55:34;97961.03;;;-1.37;100.00
41254;BME280;26987;59.928;30.306;2023-12-22T01:58:02;97972.16;;;-1.35;100.00
41254;BME280;26987;59.928;30.306;2023-12-22T02:00:30;97959.00;;;-1.42;100.00
41254;BME280;26987;59.928;30.306;2023-12-22T02:03:00;97958.19;;;-1.43;100.00
41254;BME280;26987;59.928;30.306;2023-12-22T02:05:28;97938.13;;;-1.57;100.00
41254;BME280;26987;59.928;30.306;2023-12-22T02:07:56;97945.56;;;-1.61;100.00
41254;BME280;26987;59.928;30.306;2023-12-22T02:10:25;97946.34;;;-1.67;100.00
41254;BME280;26987;59.928;30.306;2023-12-22T02:12:53;97942.31;;;-1.70;100.00
41254;BME280;26987;59.928;30.306;2023-12-22T02:15:21;97947.16;;;-1.67;100.00
41254;BME280;26987;59.928;30.306;2023-12-22T02:17:55;97927.56;;;-1.71;100.00
41254;BME280;26987;59.928;30.306;2023-12-22T02:20:28;97937.69;;;-1.68;100.00
41254;BME280;26987;59.928;30.306;2023-12-22T02:22:57;97925.94;;;-1.72;100.00
41254;BME280;26987;59.928;30.306;2023-12-22T02:25:25;97911.34;;;-1.81;100.00
41254;BME280;26987;59.928;30.306;2023-12-22T02:27:58;97916.59;;;-1.74;100.00
41254;BME280;26987;59.928;30.306;2023-12-22T02:30:33;97903.28;;;-1.80;100.00
41254;BME280;26987;59.928;30.306;2023-12-22T02:33:04;97911.34;;;-1.74;100.00
41254;BME280;26987;59.928;30.306;2023-12-22T02:35:34;97854.84;;;-2.12;100.00
41254;BME280;26987;59.928;30.306;2023-12-22T02:38:08;97903.28;;;-1.80;100.00
41254;BME280;26987;59.928;30.306;2023-12-22T02:40:38;97897.19;;;-1.87;100.00
41254;BME280;26987;59.928;30.306;2023-12-22T02:43:30;97902.84;;;-1.83;100.00
41254;BME280;26987;59.928;30.306;2023-12-22T02:46:01;97880.34;;;-1.93;100.00
41254;BME280;26987;59.928;30.306;2023-12-22T02:48:32;97849.34;;;-2.18;100.00
41254;BME280;26987;59.928;30.306;2023-12-22T02:51:07;97883.81;;;-1.92;100.00
41254;BME280;26987;59.928;30.306;2023-12-22T02:53:36;97871.44;;;-1.98;100.00
41254;BME280;26987;59.928;30.306;2023-12-22T02:56:05;97872.84;;;-2.03;100.00
41254;BME280;26987;59.928;30.306;2023-12-22T02:58:33;97873.28;;;-1.99;100.00
41254;BME280;26987;59.928;30.306;2023-12-22T03:01:01;97876.31;;;-2.02;100.00
41254;BME280;26987;59.928;30.306;2023-12-22T03:03:29;97871.25;;;-1.97;100.00
41254;BME280;26987;59.928;30.306;2023-12-22T03:05:57;97867.41;;;-2.01;100.00
41254;BME280;26987;59.928;30.306;2023-12-22T03:08:32;97863.16;;;-2.02;100.00
41254;BME280;26987;59.928;30.306;2023-12-22T03:11:01;97857.72;;;-1.94;100.00
41254;BME280;26987;59.928;30.306;2023-12-22T03:13:29;97865.41;;;-1.99;100.00
41254;BME280;26987;59.928;30.306;2023-12-22T03:15:57;97867.22;;;-1.99;100.00
41254;BME280;26987;59.928;30.306;2023-12-22T03:18:25;97848.56;;;-2.11;100.00
41254;BME280;26987;59.928;30.306;2023-12-22T03:20:53;97851.84;;;-1.96;100.00
41254;BME280;26987;59.928;30.306;2023-12-22T03:23:21;97844.78;;;-1.95;100.00
41254;BME280;26987;59.928;30.306;2023-12-22T03:25:48;97845.22;;;-1.92;100.00
41254;BME280;26987;59.928;30.306;2023-12-22T03:28:18;97851.47;;;-1.93;100.00
41254;BME280;26987;59.928;30.306;2023-12-22T03:30:49;97760.19;;;-2.46;100.00
41254;BME280;26987;59.928;30.306;2023-12-22T03:33:22;97854.75;;;-1.84;100.00
41254;BME280;26987;59.928;30.306;2023-12-22T03:36:07;97864.44;;;-1.78;100.00
41254;BME280;26987;59.928;30.306;2023-12-22T03:38:38;97830.91;;;-1.75;100.00
41254;BME280;26987;59.928;30.306;2023-12-22T03:41:06;97846.28;;;-1.72;100.00
41254;BME280;26987;59.928;30.306;2023-12-22T03:43:36;97836.41;;;-1.70;100.00
41254;BME280;26987;59.928;30.306;2023-12-22T03:46:03;97841.22;;;-1.67;100.00
41254;BME280;26987;59.928;30.306;2023-12-22T03:48:31;97818.59;;;-1.75;100.00
41254;BME280;26987;59.928;30.306;2023-12-22T03:50:59;97815.75;;;-1.80;100.00
41254;BME280;26987;59.928;30.306;2023-12-22T03:53:27;97805.25;;;-1.80;100.00
41254;BME280;26987;59.928;30.306;2023-12-22T03:55:55;97811.72;;;-1.76;100.00
41254;BME280;26987;59.928;30.306;2023-12-22T03:58:23;97815.38;;;-1.70;100.00
41254;BME280;26987;59.928;30.306;2023-12-22T04:00:53;97796.56;;;-1.74;100.00
41254;BME280;26987;59.928;30.306;2023-12-22T04:03:21;97809.09;;;-1.62;100.00
41254;BME280;26987;59.928;30.306;2023-12-22T04:05:49;97800.22;;;-1.68;100.00
41254;BME280;26987;59.928;30.306;2023-12-22T04:08:17;97808.72;;;-1.59;100.00
41254;BME280;26987;59.928;30.306;2023-12-22T04:10:46;97807.72;;;-1.58;100.00
41254;BME280;26987;59.928;30.306;2023-12-22T04:13:14;97810.34;;;-1.58;100.00
41254;BME280;26987;59.928;30.306;2023-12-22T04:15:42;97796.78;;;-1.62;100.00
41254;BME280;26987;59.928;30.306;2023-12-22T04:18:12;97808.94;;;-1.54;100.00
41254;BME280;26987;59.928;30.306;2023-12-22T04:20:40;97798.22;;;-1.53;100.00
41254;BME280;26987;59.928;30.306;2023-12-22T04:23:07;97801.25;;;-1.49;100.00
41254;BME280;26987;59.928;30.306;2023-12-22T04:25:35;97793.94;;;-1.54;100.00
41254;BME280;26987;59.928;30.306;2023-12-22T04:28:03;97788.94;;;-1.55;100.00
41254;BME280;26987;59.928;30.306;2023-12-22T04:30:31;97792.16;;;-1.53;100.00
41254;BME280;26987;59.928;30.306;2023-12-22T04:32:59;97772.13;;;-1.61;100.00
41254;BME280;26987;59.928;30.306;2023-12-22T04:35:28;97770.53;;;-1.55;100.00
41254;BME280;26987;59.928;30.306;2023-12-22T04:37:56;97779.22;;;-1.48;100.00
41254;BME280;26987;59.928;30.306;2023-12-22T04:40:24;97786.91;;;-1.46;100.00
41254;BME280;26987;59.928;30.306;2023-12-22T04:42:54;97765.88;;;-1.46;100.00
41254;BME280;26987;59.928;30.306;2023-12-22T04:45:22;97749.09;;;-1.45;100.00
41254;BME280;26987;59.928;30.306;2023-12-22T04:47:50;97755.56;;;-1.41;100.00
41254;BME280;26987;59.928;30.306;2023-12-22T04:50:18;97736.38;;;-1.55;100.00
41254;BME280;26987;59.928;30.306;2023-12-22T04:52:47;97760.63;;;-1.40;100.00
41254;BME280;26987;59.928;30.306;2023-12-22T04:55:15;97744.84;;;-1.53;100.00
41254;BME280;26987;59.928;30.306;2023-12-22T04:57:44;97742.81;;;-1.51;100.00
41254;BME280;26987;59.928;30.306;2023-12-22T05:00:12;97754.75;;;-1.42;100.00
41254;BME280;26987;59.928;30.306;2023-12-22T05:02:40;97754.53;;;-1.40;100.00
41254;BME280;26987;59.928;30.306;2023-12-22T05:05:09;97744.44;;;-1.36;100.00
41254;BME280;26987;59.928;30.306;2023-12-22T05:07:38;97686.63;;;-1.77;100.00
41254;BME280;26987;59.928;30.306;2023-12-22T05:10:08;97749.69;;;-1.36;100.00
41254;BME280;26987;59.928;30.306;2023-12-22T05:12:36;97712.91;;;-1.57;100.00
41254;BME280;26987;59.928;30.306;2023-12-22T05:15:04;97733.75;;;-1.42;100.00
41254;BME280;26987;59.928;30.306;2023-12-22T05:17:32;97701.56;;;-1.64;100.00
41254;BME280;26987;59.928;30.306;2023-12-22T05:20:00;97733.50;;;-1.33;100.00
41254;BME280;26987;59.928;30.306;2023-12-22T05:22:28;97725.44;;;-1.32;100.00
41254;BME280;26987;59.928;30.306;2023-12-22T05:24:57;97730.91;;;-1.27;100.00
41254;BME280;26987;59.928;30.306;2023-12-22T05:27:27;97728.69;;;-1.30;100.00
41254;BME280;26987;59.928;30.306;2023-12-22T05:29:55;97732.88;;;-1.22;100.00
41254;BME280;26987;59.928;30.306;2023-12-22T05:32:27;97731.69;;;-1.19;100.00
41254;BME280;26987;59.928;30.306;2023-12-22T05:34:55;97715.72;;;-1.31;100.00
41254;BME280;26987;59.928;30.306;2023-12-22T05:37:23;97711.25;;;-1.31;100.00
41254;BME280;26987;59.928;30.306;2023-12-22T05:39:51;97714.09;;;-1.25;100.00
41254;BME280;26987;59.928;30.306;2023-12-22T05:42:19;97720.59;;;-1.28;100.00
41254;BME280;26987;59.928;30.306;2023-12-22T05:44:49;97721.56;;;-1.16;100.00
41254;BME280;26987;59.928;30.306;2023-12-22T05:47:17;97712.88;;;-1.16;100.00
41254;BME280;26987;59.928;30.306;2023-12-22T05:49:46;97718.94;;;-1.16;100.00
41254;BME280;26987;59.928;30.306;2023-12-22T05:52:13;97704.16;;;-1.17;100.00
41254;BME280;26987;59.928;30.306;2023-12-22T05:54:41;97705.56;;;-1.07;100.00
41254;BME280;26987;59.928;30.306;2023-12-22T05:57:09;97702.34;;;-1.09;100.00
41254;BME280;26987;59.928;30.306;2023-12-22T05:59:37;97705.56;;;-1.07;100.00
41254;BME280;26987;59.928;30.306;2023-12-22T06:02:06;97692.22;;;-1.12;100.00
41254;BME280;26987;59.928;30.306;2023-12-22T06:04:34;97706.97;;;-1.05;100.00
41254;BME280;26987;59.928;30.306;2023-12-22T06:07:03;97671.63;;;-1.29;100.00
41254;BME280;26987;59.928;30.306;2023-12-22T06:09:31;97709.41;;;-1.03;100.00
41254;BME280;26987;59.928;30.306;2023-12-22T06:11:59;97704.34;;;-1.05;100.00
41254;BME280;26987;59.928;30.306;2023-12-22T06:14:27;97686.56;;;-1.09;100.00
41254;BME280;26987;59.928;30.306;2023-12-22T06:16:55;97693.63;;;-1.03;100.00
41254;BME280;26987;59.928;30.306;2023-12-22T06:19:26;97705.16;;;-1.04;100.00
41254;BME280;26987;59.928;30.306;2023-12-22T06:21:54;97687.97;;;-1.07;100.00
41254;BME280;26987;59.928;30.306;2023-12-22T06:24:23;97696.25;;;-1.10;100.00
41254;BME280;26987;59.928;30.306;2023-12-22T06:26:51;97695.06;;;-1.14;100.00
41254;BME280;26987;59.928;30.306;2023-12-22T06:29:19;97694.69;;;-1.18;100.00
41254;BME280;26987;59.928;30.306;2023-12-22T06:31:47;97690.81;;;-1.22;100.00
41254;BME280;26987;59.928;30.306;2023-12-22T06:34:17;97691.03;;;-1.23;100.00
41254;BME280;26987;59.928;30.306;2023-12-22T06:36:46;97693.66;;;-1.17;100.00
41254;BME280;26987;59.928;30.306;2023-12-22T06:39:15;97699.13;;;-1.18;100.00
41254;BME280;26987;59.928;30.306;2023-12-22T06:41:43;97698.50;;;-1.13;100.00
41254;BME280;26987;59.928;30.306;2023-12-22T06:44:11;97678.91;;;-1.24;100.00
41254;BME280;26987;59.928;30.306;2023-12-22T06:46:39;97636.25;;;-1.54;100.00
41254;BME280;26987;59.928;30.306;2023-12-22T06:49:07;97685.16;;;-1.19;100.00
41254;BME280;26987;59.928;30.306;2023-12-22T06:51:36;97688.81;;;-1.27;100.00
41254;BME280;26987;59.928;30.306;2023-12-22T06:54:06;97689.41;;;-1.18;100.00
41254;BME280;26987;59.928;30.306;2023-12-22T06:56:35;97695.88;;;-1.20;100.00
41254;BME280;26987;59.928;30.306;2023-12-22T06:59:03;97700.72;;;-1.17;100.00
41254;BME280;26987;59.928;30.306;2023-12-22T07:01:31;97695.06;;;-1.28;100.00
41254;BME280;26987;59.928;30.306;2023-12-22T07:04:00;97693.69;;;-1.30;100.00
41254;BME280;26987;59.928;30.306;2023-12-22T07:06:30;97700.75;;;-1.24;100.00
41254;BME280;26987;59.928;30.306;2023-12-22T07:09:30;97685.34;;;-1.20;100.00
41254;BME280;26987;59.928;30.306;2023-12-22T07:11:58;97695.47;;;-1.31;100.00
41254;BME280;26987;59.928;30.306;2023-12-22T07:14:26;97674.88;;;-1.41;100.00
41254;BME280;26987;59.928;30.306;2023-12-22T07:16:54;97686.59;;;-1.36;100.00
41254;BME280;26987;59.928;30.306;2023-12-22T07:19:24;97650.84;;;-1.51;100.00
41254;BME280;26987;59.928;30.306;2023-12-22T07:21:52;97677.28;;;-1.32;100.00
41254;BME280;26987;59.928;30.306;2023-12-22T07:24:20;97663.34;;;-1.33;100.00
41254;BME280;26987;59.928;30.306;2023-12-22T07:26:49;97654.63;;;-1.40;100.00
41254;BME280;26987;59.928;30.306;2023-12-22T07:29:18;97647.59;;;-1.46;100.00
41254;BME280;26987;59.928;30.306;2023-12-22T07:31:46;97662.75;;;-1.28;100.00
41254;BME280;26987;59.928;30.306;2023-12-22T07:34:13;97655.44;;;-1.26;100.00
41254;BME280;26987;59.928;30.306;2023-12-22T07:36:43;97652.81;;;-1.26;100.00
41254;BME280;26987;59.928;30.306;2023-12-22T07:39:11;97661.09;;;-1.29;100.00
41254;BME280;26987;59.928;30.306;2023-12-22T07:41:38;97652.44;;;-1.36;100.00
41254;BME280;26987;59.928;30.306;2023-12-22T07:44:08;97651.81;;;-1.38;100.00
41254;BME280;26987;59.928;30.306;2023-12-22T07:46:35;97579.13;;;-1.85;100.00
41254;BME280;26987;59.928;30.306;2023-12-22T07:49:03;97657.69;;;-1.36;100.00
41254;BME280;26987;59.928;30.306;2023-12-22T07:51:31;97656.06;;;-1.37;100.00
41254;BME280;26987;59.928;30.306;2023-12-22T07:53:59;97653.03;;;-1.34;100.00
41254;BME280;26987;59.928;30.306;2023-12-22T07:56:27;97646.16;;;-1.42;100.00
41254;BME280;26987;59.928;30.306;2023-12-22T07:58:55;97564.56;;;-1.95;100.00
41254;BME280;26987;59.928;30.306;2023-12-22T08:01:24;97644.34;;;-1.35;100.00
41254;BME280;26987;59.928;30.306;2023-12-22T08:03:52;97634.84;;;-1.43;100.00
41254;BME280;26987;59.928;30.306;2023-12-22T08:06:20;97653.63;;;-1.32;100.00
41254;BME280;26987;59.928;30.306;2023-12-22T08:08:48;97647.56;;;-1.33;100.00
41254;BME280;26987;59.928;30.306;2023-12-22T08:11:16;97647.78;;;-1.34;100.00
41254;BME280;26987;59.928;30.306;2023-12-22T08:13:46;97651.00;;;-1.32;100.00
41254;BME280;26987;59.928;30.306;2023-12-22T08:16:14;97657.88;;;-1.31;100.00
41254;BME280;26987;59.928;30.306;2023-12-22T08:18:44;97635.63;;;-1.35;100.00
41254;BME280;26987;59.928;30.306;2023-12-22T08:21:13;97639.47;;;-1.31;100.00
41254;BME280;26987;59.928;30.306;2023-12-22T08:23:41;97652.59;;;-1.24;100.00
41254;BME280;26987;59.928;30.306;2023-12-22T08:26:09;97643.91;;;-1.25;100.00
41254;BME280;26987;59.928;30.306;2023-12-22T08:28:38;97657.03;;;-1.25;100.00
41254;BME280;26987;59.928;30.306;2023-12-22T08:31:06;97661.09;;;-1.29;100.00
41254;BME280;26987;59.928;30.306;2023-12-22T08:33:34;97649.34;;;-1.20;100.00
41254;BME280;26987;59.928;30.306;2023-12-22T08:36:04;97632.78;;;-1.27;100.00
41254;BME280;26987;59.928;30.306;2023-12-22T08:38:32;97640.03;;;-1.16;100.00
41254;BME280;26987;59.928;30.306;2023-12-22T08:41:00;97611.75;;;-1.27;100.00
41254;BME280;26987;59.928;30.306;2023-12-22T08:43:28;97642.25;;;-1.12;100.00
41254;BME280;26987;59.928;30.306;2023-12-22T08:45:56;97629.72;;;-1.10;100.00
41254;BME280;26987;59.928;30.306;2023-12-22T08:48:23;97625.84;;;-1.08;100.00
41254;BME280;26987;59.928;30.306;2023-12-22T08:50:51;97620.59;;;-1.01;100.00
41254;BME280;26987;59.928;30.306;2023-12-22T08:53:21;97624.00;;;-1.00;100.00
41254;BME280;26987;59.928;30.306;2023-12-22T08:55:49;97618.94;;;-1.02;100.00
41254;BME280;26987;59.928;30.306;2023-12-22T08:58:17;97619.34;;;-0.98;100.00
41254;BME280;26987;59.928;30.306;2023-12-22T09:00:45;97620.97;;;-0.97;100.00
41254;BME280;26987;59.928;30.306;2023-12-22T09:03:12;97620.97;;;-0.97;100.00
41254;BME280;26987;59.928;30.306;2023-12-22T09:05:40;97604.97;;;-0.96;100.00
41254;BME280;26987;59.928;30.306;2023-12-22T09:08:08;97611.25;;;-0.97;100.00
41254;BME280;26987;59.928;30.306;2023-12-22T09:10:38;97602.34;;;-0.96;100.00
41254;BME280;26987;59.928;30.306;2023-12-22T09:13:05;97563.19;;;-1.18;100.00
41254;BME280;26987;59.928;30.306;2023-12-22T09:15:33;97590.03;;;-1.02;100.00
41254;BME280;26987;59.928;30.306;2023-12-22T09:18:02;97601.53;;;-0.96;100.00
41254;BME280;26987;59.928;30.306;2023-12-22T09:20:30;97587.00;;;-1.06;100.00
41254;BME280;26987;59.928;30.306;2023-12-22T09:22:58;97578.09;;;-1.05;100.00
41254;BME280;26987;59.928;30.306;2023-12-22T09:25:26;97570.63;;;-1.08;100.00
41254;BME280;26987;59.928;30.306;2023-12-22T09:27:56;97587.75;;;-0.92;100.00
41254;BME280;26987;59.928;30.306;2023-12-22T09:30:24;97590.16;;;-0.90;100.00
41254;BME280;26987;59.928;30.306;2023-12-22T09:32:52;97596.03;;;-0.88;100.00
41254;BME280;26987;59.928;30.306;2023-12-22T09:35:20;97593.19;;;-0.86;100.00
41254;BME280;26987;59.928;30.306;2023-12-22T09:37:48;97582.28;;;-0.90;100.00
41254;BME280;26987;59.928;30.306;2023-12-22T09:40:16;97557.47;;;-1.01;100.00
41254;BME280;26987;59.928;30.306;2023-12-22T09:42:45;97563.50;;;-1.00;100.00
41254;BME280;26987;59.928;30.306;2023-12-22T09:45:16;97567.72;;;-0.86;100.00
41254;BME280;26987;59.928;30.306;2023-12-22T09:47:46;97574.38;;;-0.83;100.00
41254;BME280;26987;59.928;30.306;2023-12-22T09:50:15;97574.38;;;-0.83;100.00
41254;BME280;26987;59.928;30.306;2023-12-22T09:52:45;97563.41;;;-0.80;100.00
41254;BME280;26987;59.928;30.306;2023-12-22T09:55:13;97545.41;;;-0.83;100.00
41254;BME280;26987;59.928;30.306;2023-12-22T09:57:42;97538.28;;;-0.76;100.00
41254;BME280;26987;59.928;30.306;2023-12-22T10:00:11;97551.25;;;-0.74;100.00
41254;BME280;26987;59.928;30.306;2023-12-22T10:02:42;97549.59;;;-0.69;100.00
41254;BME280;26987;59.928;30.306;2023-12-22T10:05:11;97547.97;;;-0.70;100.00
41254;BME280;26987;59.928;30.306;2023-12-22T10:07:40;97551.38;;;-0.62;100.00
41254;BME280;26987;59.928;30.306;2023-12-22T10:10:09;97545.06;;;-0.61;100.00
41254;BME280;26987;59.928;30.306;2023-12-22T10:12:38;97542.28;;;-0.67;100.00
41254;BME280;26987;59.928;30.306;2023-12-22T10:15:08;97539.25;;;-0.64;100.00
41254;BME280;26987;59.928;30.306;2023-12-22T10:17:38;97539.25;;;-0.64;100.00
41254;BME280;26987;59.928;30.306;2023-12-22T10:20:10;97529.13;;;-0.67;100.00
41254;BME280;26987;59.928;30.306;2023-12-22T10:22:38;97531.75;;;-0.67;100.00
41254;BME280;26987;59.928;30.306;2023-12-22T10:25:08;97530.53;;;-0.64;100.00
41254;BME280;26987;59.928;30.306;2023-12-22T10:27:36;97525.25;;;-0.64;100.00
41254;BME280;26987;59.928;30.306;2023-12-22T10:30:05;97525.06;;;-0.62;100.00
41254;BME280;26987;59.928;30.306;2023-12-22T10:32:33;97534.97;;;-0.65;100.00
41254;BME280;26987;59.928;30.306;2023-12-22T10:35:01;97524.03;;;-0.61;100.00
41254;BME280;26987;59.928;30.306;2023-12-22T10:37:32;97521.81;;;-0.65;100.00
41254;BME280;26987;59.928;30.306;2023-12-22T10:40:00;97507.66;;;-0.64;100.00
41254;BME280;26987;59.928;30.306;2023-12-22T10:42:31;97522.41;;;-0.62;100.00
41254;BME280;26987;59.928;30.306;2023-12-22T10:45:00;97520.75;;;-0.57;100.00
41254;BME280;26987;59.928;30.306;2023-12-22T10:47:28;97523.78;;;-0.53;100.00
41254;BME280;26987;59.928;30.306;2023-12-22T10:49:56;97520.72;;;-0.50;100.00
41254;BME280;26987;59.928;30.306;2023-12-22T10:52:24;97510.63;;;-0.53;100.00
41254;BME280;26987;59.928;30.306;2023-12-22T10:54:56;97502.94;;;-0.55;100.00
41254;BME280;26987;59.928;30.306;2023-12-22T10:57:26;97505.78;;;-0.56;100.00
41254;BME280;26987;59.928;30.306;2023-12-22T10:59:56;97506.31;;;-0.47;100.00
41254;BME280;26987;59.928;30.306;2023-12-22T11:02:27;97483.78;;;-0.69;100.00
41254;BME280;26987;59.928;30.306;2023-12-22T11:05:00;97508.88;;;-0.41;100.00
41254;BME280;26987;59.928;30.306;2023-12-22T11:07:28;97502.09;;;-0.48;100.00
41254;BME280;26987;59.928;30.306;2023-12-22T11:10:01;97482.31;;;-0.58;100.00
41254;BME280;26987;59.928;30.306;2023-12-22T11:12:31;97509.88;;;-0.35;100.00
41254;BME280;26987;59.928;30.306;2023-12-22T11:15:00;97504.41;;;-0.33;100.00
41254;BME280;26987;59.928;30.306;2023-12-22T11:17:30;97493.47;;;-0.37;100.00
41254;BME280;26987;59.928;30.306;2023-12-22T11:20:00;97508.03;;;-0.34;100.00
41254;BME280;26987;59.928;30.306;2023-12-22T11:22:28;97511.91;;;-0.37;100.00
41254;BME280;26987;59.928;30.306;2023-12-22T11:25:02;97516.91;;;-0.29;100.00
41254;BME280;26987;59.928;30.306;2023-12-22T11:27:33;97501.16;;;-0.35;100.00
41254;BME280;26987;59.928;30.306;2023-12-22T11:30:01;97509.81;;;-0.28;100.00
41254;BME280;26987;59.928;30.306;2023-12-22T11:32:30;97481.38;;;-0.45;100.00
41254;BME280;26987;59.928;30.306;2023-12-22T11:35:00;97515.47;;;-0.24;100.00
41254;BME280;26987;59.928;30.306;2023-12-22T11:37:31;97521.50;;;-0.24;100.00
41254;BME280;26987;59.928;30.306;2023-12-22T11:40:00;97519.91;;;-0.25;100.00
41254;BME280;26987;59.928;30.306;2023-12-22T11:42:41;97525.34;;;-0.20;100.00
41254;BME280;26987;59.928;30.306;2023-12-22T11:45:10;97520.88;;;-0.19;100.00
41254;BME280;26987;59.928;30.306;2023-12-22T11:47:42;97496.22;;;-0.25;100.00
41254;BME280;26987;59.928;30.306;2023-12-22T11:50:10;97510.72;;;-0.16;100.00
41254;BME280;26987;59.928;30.306;2023-12-22T11:52:38;97497.25;;;-0.26;100.00
41254;BME280;26987;59.928;30.306;2023-12-22T11:55:08;97507.88;;;-0.14;100.00
41254;BME280;26987;59.928;30.306;2023-12-22T11:57:37;97505.47;;;-0.16;100.00
41254;BME280;26987;59.928;30.306;2023-12-22T12:00:19;97522.44;;;-0.11;100.00
41254;BME280;26987;59.928;30.306;2023-12-22T12:02:58;97506.84;;;-0.13;100.00
41254;BME280;26987;59.928;30.306;2023-12-22T12:05:26;97504.59;;;-0.09;100.00
41254;BME280;26987;59.928;30.306;2023-12-22T12:07:53;97510.44;;;-0.07;100.00
41254;BME280;26987;59.928;30.306;2023-12-22T12:10:52;97513.38;;;0.03;100.00
41254;BME280;26987;59.928;30.306;2023-12-22T12:13:22;97513.44;;;-0.04;100.00
41254;BME280;26987;59.928;30.306;2023-12-22T12:15:52;97505.16;;;-0.07;100.00
41254;BME280;26987;59.928;30.306;2023-12-22T12:18:23;97507.88;;;-0.14;100.00
41254;BME280;26987;59.928;30.306;2023-12-22T12:20:51;97501.66;;;-0.20;100.00
41254;BME280;26987;59.928;30.306;2023-12-22T12:23:19;97497.03;;;-0.24;100.00
41254;BME280;26987;59.928;30.306;2023-12-22T12:25:48;97501.91;;;-0.28;100.00
41254;BME280;26987;59.928;30.306;2023-12-22T12:28:16;97493.25;;;-0.35;100.00
41254;BME280;26987;59.928;30.306;2023-12-22T12:30:45;97511.88;;;-0.30;100.00
41254;BME280;26987;59.928;30.306;2023-12-22T12:33:15;97495.28;;;-0.38;100.00
41254;BME280;26987;59.928;30.306;2023-12-22T12:35:44;97503.78;;;-0.35;100.00
41254;BME280;26987;59.928;30.306;2023-12-22T12:38:17;97509.81;;;-0.28;100.00
41254;BME280;26987;59.928;30.306;2023-12-22T12:40:45;97503.97;;;-0.30;100.00
41254;BME280;26987;59.928;30.306;2023-12-22T12:43:17;97517.28;;;-0.25;100.00
41254;BME280;26987;59.928;30.306;2023-12-22T12:45:45;97501.97;;;-0.35;100.00
41254;BME280;26987;59.928;30.306;2023-12-22T12:48:16;97518.66;;;-0.22;100.00
41254;BME280;26987;59.928;30.306;2023-12-22T12:50:44;97521.31;;;-0.22;100.00